Financial Plaza, Florida
Current Conditions -  °F | °C
As of 5:53 AM on Wednesday 22 Oct 2014 (Local Time) from KFLL Reporting Station
Broken Clouds Broken Clouds  
Wind Chill: 75°   Ceiling: 20000
Heat Index: 75°   Visibility: 10mi
Dew Point: 71°   Wind: 0mph
Humidity: 87%   Direction: NA
Pressure: 29.92"   Gusts: NA
Location:  26.1179°N, 80.1441°W
Report Text: KFLL 220953Z 00000KT 10SM FEW012 FEW100 BKN200 24/22 A2992 RMK AO2 SLP130 T02390217
Loading
Personal Weather Stations






























Interactive Weather Map
Tropical Storm Tracking
New forecast layout! Learn more

10-Day Weather Forecast

Advertisements
Track Severe Weather on mobile